sensor_id;sensor_type;location;lat;lon;timestamp;P1;durP1;ratioP1;P2;durP2;ratioP2
69203;SDS011;56317;27.658;85.326;2023-02-15T00:00:04;136.70;;;74.43;;
69203;SDS011;56317;27.658;85.326;2023-02-15T00:02:33;141.32;;;76.30;;
69203;SDS011;56317;27.658;85.326;2023-02-15T00:05:01;147.68;;;76.53;;
69203;SDS011;56317;27.658;85.326;2023-02-15T00:07:28;138.55;;;74.57;;
69203;SDS011;56317;27.658;85.326;2023-02-15T00:09:55;149.45;;;76.65;;
69203;SDS011;56317;27.658;85.326;2023-02-15T00:12:22;142.50;;;74.38;;
69203;SDS011;56317;27.658;85.326;2023-02-15T00:14:50;153.38;;;75.03;;
69203;SDS011;56317;27.658;85.326;2023-02-15T00:17:17;148.02;;;73.32;;
69203;SDS011;56317;27.658;85.326;2023-02-15T00:19:44;148.82;;;75.47;;
69203;SDS011;56317;27.658;85.326;2023-02-15T00:22:11;144.13;;;75.97;;
69203;SDS011;56317;27.658;85.326;2023-02-15T00:24:38;147.00;;;74.85;;
69203;SDS011;56317;27.658;85.326;2023-02-15T00:27:05;144.50;;;73.53;;
69203;SDS011;56317;27.658;85.326;2023-02-15T00:29:34;142.15;;;74.72;;
69203;SDS011;56317;27.658;85.326;2023-02-15T00:32:01;151.00;;;76.30;;
69203;SDS011;56317;27.658;85.326;2023-02-15T00:34:29;154.65;;;77.10;;
69203;SDS011;56317;27.658;85.326;2023-02-15T00:36:56;144.98;;;77.32;;
69203;SDS011;56317;27.658;85.326;2023-02-15T00:39:23;144.75;;;63.10;;
69203;SDS011;56317;27.658;85.326;2023-02-15T00:41:52;129.15;;;60.88;;
69203;SDS011;56317;27.658;85.326;2023-02-15T00:44:19;151.68;;;63.70;;
69203;SDS011;56317;27.658;85.326;2023-02-15T00:46:47;139.57;;;61.92;;
69203;SDS011;56317;27.658;85.326;2023-02-15T00:49:14;118.82;;;53.95;;
69203;SDS011;56317;27.658;85.326;2023-02-15T00:51:41;124.22;;;54.10;;
69203;SDS011;56317;27.658;85.326;2023-02-15T00:54:08;125.35;;;57.03;;
69203;SDS011;56317;27.658;85.326;2023-02-15T00:56:36;119.40;;;55.67;;
69203;SDS011;56317;27.658;85.326;2023-02-15T00:59:03;122.40;;;59.70;;
69203;SDS011;56317;27.658;85.326;2023-02-15T01:01:30;137.20;;;62.15;;
69203;SDS011;56317;27.658;85.326;2023-02-15T01:03:57;127.20;;;60.10;;
69203;SDS011;56317;27.658;85.326;2023-02-15T01:06:24;149.20;;;61.70;;
69203;SDS011;56317;27.658;85.326;2023-02-15T01:08:52;130.90;;;59.50;;
69203;SDS011;56317;27.658;85.326;2023-02-15T01:11:20;159.20;;;62.75;;
69203;SDS011;56317;27.658;85.326;2023-02-15T01:13:49;127.13;;;60.10;;
69203;SDS011;56317;27.658;85.326;2023-02-15T01:16:18;151.15;;;61.30;;
69203;SDS011;56317;27.658;85.326;2023-02-15T01:18:45;126.45;;;61.80;;
69203;SDS011;56317;27.658;85.326;2023-02-15T01:21:14;162.52;;;60.45;;
69203;SDS011;56317;27.658;85.326;2023-02-15T01:23:44;129.40;;;57.63;;
69203;SDS011;56317;27.658;85.326;2023-02-15T01:26:12;136.07;;;61.65;;
69203;SDS011;56317;27.658;85.326;2023-02-15T01:28:41;124.63;;;63.10;;
69203;SDS011;56317;27.658;85.326;2023-02-15T01:31:09;128.18;;;64.85;;
69203;SDS011;56317;27.658;85.326;2023-02-15T01:33:38;155.85;;;69.60;;
69203;SDS011;56317;27.658;85.326;2023-02-15T01:36:06;148.10;;;65.25;;
69203;SDS011;56317;27.658;85.326;2023-02-15T01:38:34;148.25;;;64.90;;
69203;SDS011;56317;27.658;85.326;2023-02-15T01:41:02;177.10;;;71.75;;
69203;SDS011;56317;27.658;85.326;2023-02-15T01:43:49;138.68;;;66.35;;
69203;SDS011;56317;27.658;85.326;2023-02-15T01:46:19;120.05;;;62.10;;
69203;SDS011;56317;27.658;85.326;2023-02-15T01:49:04;131.05;;;63.17;;
69203;SDS011;56317;27.658;85.326;2023-02-15T01:51:45;122.25;;;59.55;;
69203;SDS011;56317;27.658;85.326;2023-02-15T01:54:19;162.98;;;67.97;;
69203;SDS011;56317;27.658;85.326;2023-02-15T01:56:51;140.90;;;67.25;;
69203;SDS011;56317;27.658;85.326;2023-02-15T01:59:21;177.23;;;76.60;;
69203;SDS011;56317;27.658;85.326;2023-02-15T02:01:51;166.25;;;72.75;;
69203;SDS011;56317;27.658;85.326;2023-02-15T02:04:26;169.32;;;77.30;;
69203;SDS011;56317;27.658;85.326;2023-02-15T02:07:16;178.18;;;84.68;;
69203;SDS011;56317;27.658;85.326;2023-02-15T02:09:48;191.43;;;91.10;;
69203;SDS011;56317;27.658;85.326;2023-02-15T02:12:16;174.40;;;88.55;;
69203;SDS011;56317;27.658;85.326;2023-02-15T02:14:45;177.95;;;87.20;;
69203;SDS011;56317;27.658;85.326;2023-02-15T02:34:25;120.40;;;65.10;;
69203;SDS011;56317;27.658;85.326;2023-02-15T02:40:29;146.10;;;70.13;;
69203;SDS011;56317;27.658;85.326;2023-02-15T02:45:55;129.50;;;74.45;;
69203;SDS011;56317;27.658;85.326;2023-02-15T02:48:48;131.25;;;72.63;;
69203;SDS011;56317;27.658;85.326;2023-02-15T02:51:16;143.57;;;76.20;;
69203;SDS011;56317;27.658;85.326;2023-02-15T02:53:48;145.52;;;81.32;;
69203;SDS011;56317;27.658;85.326;2023-02-15T02:56:40;150.30;;;80.70;;
69203;SDS011;56317;27.658;85.326;2023-02-15T02:59:16;167.25;;;84.63;;
69203;SDS011;56317;27.658;85.326;2023-02-15T03:01:50;145.50;;;81.82;;
69203;SDS011;56317;27.658;85.326;2023-02-15T03:04:40;166.87;;;85.30;;
69203;SDS011;56317;27.658;85.326;2023-02-15T03:07:20;155.55;;;85.30;;
69203;SDS011;56317;27.658;85.326;2023-02-15T03:09:51;141.02;;;81.80;;
69203;SDS011;56317;27.658;85.326;2023-02-15T03:15:00;129.10;;;72.15;;
69203;SDS011;56317;27.658;85.326;2023-02-15T03:17:35;128.77;;;67.95;;
69203;SDS011;56317;27.658;85.326;2023-02-15T03:20:09;130.13;;;69.63;;
69203;SDS011;56317;27.658;85.326;2023-02-15T03:22:51;113.05;;;67.07;;
69203;SDS011;56317;27.658;85.326;2023-02-15T03:25:39;132.13;;;66.00;;
69203;SDS011;56317;27.658;85.326;2023-02-15T03:28:11;123.38;;;67.65;;
69203;SDS011;56317;27.658;85.326;2023-02-15T03:30:42;134.73;;;68.05;;
69203;SDS011;56317;27.658;85.326;2023-02-15T03:33:13;134.13;;;68.50;;
69203;SDS011;56317;27.658;85.326;2023-02-15T03:35:46;131.45;;;70.35;;
69203;SDS011;56317;27.658;85.326;2023-02-15T03:38:26;118.80;;;70.57;;
69203;SDS011;56317;27.658;85.326;2023-02-15T03:41:02;129.63;;;70.68;;
69203;SDS011;56317;27.658;85.326;2023-02-15T03:49:12;124.25;;;70.65;;
69203;SDS011;56317;27.658;85.326;2023-02-15T03:52:04;138.27;;;69.78;;
69203;SDS011;56317;27.658;85.326;2023-02-15T03:54:34;144.75;;;70.28;;
69203;SDS011;56317;27.658;85.326;2023-02-15T04:00:28;125.32;;;68.75;;
69203;SDS011;56317;27.658;85.326;2023-02-15T04:05:45;131.05;;;70.57;;
69203;SDS011;56317;27.658;85.326;2023-02-15T04:08:13;129.07;;;69.88;;
69203;SDS011;56317;27.658;85.326;2023-02-15T04:10:40;123.00;;;69.65;;
69203;SDS011;56317;27.658;85.326;2023-02-15T04:13:22;124.28;;;68.22;;
69203;SDS011;56317;27.658;85.326;2023-02-15T04:15:55;141.05;;;68.72;;
69203;SDS011;56317;27.658;85.326;2023-02-15T04:18:32;134.25;;;68.47;;
69203;SDS011;56317;27.658;85.326;2023-02-15T04:21:18;128.77;;;66.93;;
69203;SDS011;56317;27.658;85.326;2023-02-15T04:24:05;134.50;;;64.25;;
69203;SDS011;56317;27.658;85.326;2023-02-15T04:26:51;121.32;;;64.97;;
69203;SDS011;56317;27.658;85.326;2023-02-15T04:29:19;100.80;;;58.03;;
69203;SDS011;56317;27.658;85.326;2023-02-15T04:31:47;106.18;;;57.20;;
69203;SDS011;56317;27.658;85.326;2023-02-15T04:34:15;100.60;;;55.38;;
69203;SDS011;56317;27.658;85.326;2023-02-15T04:36:43;108.88;;;57.28;;
69203;SDS011;56317;27.658;85.326;2023-02-15T04:39:14;85.60;;;50.80;;
69203;SDS011;56317;27.658;85.326;2023-02-15T04:44:09;106.78;;;53.28;;
69203;SDS011;56317;27.658;85.326;2023-02-15T04:46:36;99.07;;;54.17;;
69203;SDS011;56317;27.658;85.326;2023-02-15T04:49:04;93.68;;;55.13;;
69203;SDS011;56317;27.658;85.326;2023-02-15T04:51:31;125.45;;;56.03;;
69203;SDS011;56317;27.658;85.326;2023-02-15T04:54:00;99.85;;;54.40;;
69203;SDS011;56317;27.658;85.326;2023-02-15T04:56:27;98.80;;;54.17;;
69203;SDS011;56317;27.658;85.326;2023-02-15T04:58:55;101.60;;;53.53;;
69203;SDS011;56317;27.658;85.326;2023-02-15T05:01:23;121.35;;;54.33;;
69203;SDS011;56317;27.658;85.326;2023-02-15T05:03:50;103.28;;;54.05;;
69203;SDS011;56317;27.658;85.326;2023-02-15T05:06:19;88.15;;;51.72;;
69203;SDS011;56317;27.658;85.326;2023-02-15T05:08:46;99.00;;;52.58;;
69203;SDS011;56317;27.658;85.326;2023-02-15T05:11:13;95.05;;;52.53;;
69203;SDS011;56317;27.658;85.326;2023-02-15T05:13:41;89.22;;;48.53;;
69203;SDS011;56317;27.658;85.326;2023-02-15T05:16:11;83.97;;;47.45;;
69203;SDS011;56317;27.658;85.326;2023-02-15T05:21:09;72.10;;;42.63;;
69203;SDS011;56317;27.658;85.326;2023-02-15T05:23:36;81.00;;;43.92;;
69203;SDS011;56317;27.658;85.326;2023-02-15T05:26:04;84.25;;;42.50;;
69203;SDS011;56317;27.658;85.326;2023-02-15T05:28:49;71.03;;;38.00;;
69203;SDS011;56317;27.658;85.326;2023-02-15T05:31:17;59.72;;;33.00;;
69203;SDS011;56317;27.658;85.326;2023-02-15T05:33:45;65.68;;;32.15;;
69203;SDS011;56317;27.658;85.326;2023-02-15T05:36:13;72.25;;;34.78;;
69203;SDS011;56317;27.658;85.326;2023-02-15T05:38:41;60.72;;;34.83;;
69203;SDS011;56317;27.658;85.326;2023-02-15T05:41:09;68.13;;;36.08;;
69203;SDS011;56317;27.658;85.326;2023-02-15T05:43:37;57.92;;;35.75;;
69203;SDS011;56317;27.658;85.326;2023-02-15T05:46:05;52.75;;;30.70;;
69203;SDS011;56317;27.658;85.326;2023-02-15T05:48:33;52.97;;;29.90;;
69203;SDS011;56317;27.658;85.326;2023-02-15T05:51:08;56.20;;;29.95;;
69203;SDS011;56317;27.658;85.326;2023-02-15T05:53:39;54.38;;;31.95;;
69203;SDS011;56317;27.658;85.326;2023-02-15T05:56:07;67.18;;;34.85;;
69203;SDS011;56317;27.658;85.326;2023-02-15T05:58:37;61.85;;;33.75;;
69203;SDS011;56317;27.658;85.326;2023-02-15T06:01:09;52.27;;;29.73;;
69203;SDS011;56317;27.658;85.326;2023-02-15T06:03:41;58.33;;;33.17;;
69203;SDS011;56317;27.658;85.326;2023-02-15T06:06:11;59.53;;;31.83;;
69203;SDS011;56317;27.658;85.326;2023-02-15T06:08:39;68.32;;;33.50;;
69203;SDS011;56317;27.658;85.326;2023-02-15T06:11:07;57.05;;;29.98;;
69203;SDS011;56317;27.658;85.326;2023-02-15T06:13:34;51.67;;;28.60;;
69203;SDS011;56317;27.658;85.326;2023-02-15T06:16:02;44.47;;;28.23;;
69203;SDS011;56317;27.658;85.326;2023-02-15T06:18:29;60.75;;;29.20;;
69203;SDS011;56317;27.658;85.326;2023-02-15T06:20:57;52.38;;;28.45;;
69203;SDS011;56317;27.658;85.326;2023-02-15T06:23:24;53.55;;;28.65;;
69203;SDS011;56317;27.658;85.326;2023-02-15T06:25:51;52.60;;;27.52;;
69203;SDS011;56317;27.658;85.326;2023-02-15T06:28:19;41.17;;;26.70;;
69203;SDS011;56317;27.658;85.326;2023-02-15T06:30:46;50.70;;;25.90;;
69203;SDS011;56317;27.658;85.326;2023-02-15T06:33:16;37.75;;;21.98;;
69203;SDS011;56317;27.658;85.326;2023-02-15T06:35:44;46.63;;;23.08;;
69203;SDS011;56317;27.658;85.326;2023-02-15T06:38:12;43.75;;;24.77;;
69203;SDS011;56317;27.658;85.326;2023-02-15T06:40:39;41.60;;;26.63;;
69203;SDS011;56317;27.658;85.326;2023-02-15T06:43:06;36.75;;;21.98;;
69203;SDS011;56317;27.658;85.326;2023-02-15T06:45:34;38.38;;;21.45;;
69203;SDS011;56317;27.658;85.326;2023-02-15T06:48:01;41.28;;;22.33;;
69203;SDS011;56317;27.658;85.326;2023-02-15T06:50:28;41.85;;;24.25;;
69203;SDS011;56317;27.658;85.326;2023-02-15T06:52:58;41.53;;;24.60;;
69203;SDS011;56317;27.658;85.326;2023-02-15T06:55:26;49.25;;;24.20;;
69203;SDS011;56317;27.658;85.326;2023-02-15T06:57:53;42.05;;;23.35;;
69203;SDS011;56317;27.658;85.326;2023-02-15T07:00:21;51.40;;;25.25;;
69203;SDS011;56317;27.658;85.326;2023-02-15T07:02:58;45.30;;;24.33;;
69203;SDS011;56317;27.658;85.326;2023-02-15T07:05:27;53.60;;;24.13;;
69203;SDS011;56317;27.658;85.326;2023-02-15T07:07:59;49.17;;;24.85;;
69203;SDS011;56317;27.658;85.326;2023-02-15T07:10:27;41.03;;;21.75;;
69203;SDS011;56317;27.658;85.326;2023-02-15T07:12:55;38.85;;;22.67;;
69203;SDS011;56317;27.658;85.326;2023-02-15T07:15:22;40.80;;;22.55;;
69203;SDS011;56317;27.658;85.326;2023-02-15T07:17:50;36.90;;;19.55;;
69203;SDS011;56317;27.658;85.326;2023-02-15T07:20:18;41.33;;;18.77;;
69203;SDS011;56317;27.658;85.326;2023-02-15T07:22:47;41.97;;;17.92;;
69203;SDS011;56317;27.658;85.326;2023-02-15T07:25:15;29.77;;;17.30;;
69203;SDS011;56317;27.658;85.326;2023-02-15T07:27:43;32.40;;;18.17;;
69203;SDS011;56317;27.658;85.326;2023-02-15T07:30:11;36.20;;;17.63;;
69203;SDS011;56317;27.658;85.326;2023-02-15T07:32:41;37.15;;;17.60;;
69203;SDS011;56317;27.658;85.326;2023-02-15T07:35:26;34.40;;;16.33;;
69203;SDS011;56317;27.658;85.326;2023-02-15T07:37:54;34.38;;;16.48;;
69203;SDS011;56317;27.658;85.326;2023-02-15T07:40:21;34.58;;;16.55;;
69203;SDS011;56317;27.658;85.326;2023-02-15T07:42:49;36.72;;;16.60;;
69203;SDS011;56317;27.658;85.326;2023-02-15T07:45:20;40.53;;;18.08;;
69203;SDS011;56317;27.658;85.326;2023-02-15T07:47:48;54.60;;;18.55;;
69203;SDS011;56317;27.658;85.326;2023-02-15T07:50:15;51.17;;;20.15;;
69203;SDS011;56317;27.658;85.326;2023-02-15T07:52:43;45.92;;;19.85;;
69203;SDS011;56317;27.658;85.326;2023-02-15T07:55:10;49.60;;;17.63;;
69203;SDS011;56317;27.658;85.326;2023-02-15T07:57:41;41.25;;;17.45;;
69203;SDS011;56317;27.658;85.326;2023-02-15T08:00:10;43.17;;;20.05;;
69203;SDS011;56317;27.658;85.326;2023-02-15T08:02:38;37.95;;;18.40;;
69203;SDS011;56317;27.658;85.326;2023-02-15T08:05:06;48.30;;;18.92;;
69203;SDS011;56317;27.658;85.326;2023-02-15T08:07:34;29.42;;;18.17;;
69203;SDS011;56317;27.658;85.326;2023-02-15T08:10:01;44.90;;;19.25;;
69203;SDS011;56317;27.658;85.326;2023-02-15T08:12:28;47.53;;;21.30;;
69203;SDS011;56317;27.658;85.326;2023-02-15T08:14:55;40.92;;;18.08;;
69203;SDS011;56317;27.658;85.326;2023-02-15T08:17:23;42.05;;;19.48;;
69203;SDS011;56317;27.658;85.326;2023-02-15T08:19:50;36.50;;;18.77;;
69203;SDS011;56317;27.658;85.326;2023-02-15T08:22:17;41.33;;;18.63;;
69203;SDS011;56317;27.658;85.326;2023-02-15T08:24:45;40.80;;;19.35;;
69203;SDS011;56317;27.658;85.326;2023-02-15T08:27:13;43.63;;;19.40;;
69203;SDS011;56317;27.658;85.326;2023-02-15T08:29:40;40.85;;;19.77;;
69203;SDS011;56317;27.658;85.326;2023-02-15T08:32:09;42.63;;;19.55;;
69203;SDS011;56317;27.658;85.326;2023-02-15T08:34:39;41.85;;;19.48;;
69203;SDS011;56317;27.658;85.326;2023-02-15T08:37:07;35.08;;;18.95;;
69203;SDS011;56317;27.658;85.326;2023-02-15T08:39:35;46.47;;;20.00;;
69203;SDS011;56317;27.658;85.326;2023-02-15T08:42:02;40.92;;;19.10;;
69203;SDS011;56317;27.658;85.326;2023-02-15T08:44:30;41.67;;;19.85;;
69203;SDS011;56317;27.658;85.326;2023-02-15T08:46:57;41.80;;;20.00;;
69203;SDS011;56317;27.658;85.326;2023-02-15T08:49:29;36.22;;;19.50;;
69203;SDS011;56317;27.658;85.326;2023-02-15T08:51:56;37.65;;;18.83;;
69203;SDS011;56317;27.658;85.326;2023-02-15T08:54:23;45.35;;;19.23;;
69203;SDS011;56317;27.658;85.326;2023-02-15T08:56:51;43.78;;;20.73;;
69203;SDS011;56317;27.658;85.326;2023-02-15T08:59:19;54.80;;;21.98;;
69203;SDS011;56317;27.658;85.326;2023-02-15T09:01:49;45.83;;;21.40;;
69203;SDS011;56317;27.658;85.326;2023-02-15T09:04:17;38.17;;;21.45;;
69203;SDS011;56317;27.658;85.326;2023-02-15T09:06:45;46.83;;;20.85;;
69203;SDS011;56317;27.658;85.326;2023-02-15T09:09:19;44.13;;;21.88;;
69203;SDS011;56317;27.658;85.326;2023-02-15T09:11:48;41.42;;;21.63;;
69203;SDS011;56317;27.658;85.326;2023-02-15T09:14:17;41.72;;;21.02;;
69203;SDS011;56317;27.658;85.326;2023-02-15T09:16:47;47.27;;;21.67;;
69203;SDS011;56317;27.658;85.326;2023-02-15T09:19:16;41.75;;;22.80;;
69203;SDS011;56317;27.658;85.326;2023-02-15T09:21:45;44.35;;;22.20;;
69203;SDS011;56317;27.658;85.326;2023-02-15T09:24:14;41.22;;;21.48;;
69203;SDS011;56317;27.658;85.326;2023-02-15T09:26:43;53.70;;;22.98;;
69203;SDS011;56317;27.658;85.326;2023-02-15T09:29:12;58.15;;;23.33;;
69203;SDS011;56317;27.658;85.326;2023-02-15T09:31:43;43.38;;;22.00;;
69203;SDS011;56317;27.658;85.326;2023-02-15T09:34:15;47.08;;;23.00;;
69203;SDS011;56317;27.658;85.326;2023-02-15T09:36:44;39.80;;;22.70;;
69203;SDS011;56317;27.658;85.326;2023-02-15T09:39:16;53.75;;;24.35;;
69203;SDS011;56317;27.658;85.326;2023-02-15T10:07:27;52.42;;;26.35;;
69203;SDS011;56317;27.658;85.326;2023-02-15T10:15:50;53.25;;;26.70;;
69203;SDS011;56317;27.658;85.326;2023-02-15T10:21:09;60.63;;;27.95;;
69203;SDS011;56317;27.658;85.326;2023-02-15T10:26:46;53.80;;;29.15;;
69203;SDS011;56317;27.658;85.326;2023-02-15T10:29:19;58.10;;;31.33;;
69203;SDS011;56317;27.658;85.326;2023-02-15T10:32:03;58.00;;;28.67;;
69203;SDS011;56317;27.658;85.326;2023-02-15T10:37:38;65.80;;;32.47;;
69203;SDS011;56317;27.658;85.326;2023-02-15T10:48:41;72.28;;;28.15;;
69203;SDS011;56317;27.658;85.326;2023-02-15T11:06:27;71.35;;;30.20;;
69203;SDS011;56317;27.658;85.326;2023-02-15T11:09:08;57.45;;;29.73;;
69203;SDS011;56317;27.658;85.326;2023-02-15T11:11:39;59.10;;;28.48;;
69203;SDS011;56317;27.658;85.326;2023-02-15T11:14:23;71.40;;;30.13;;
69203;SDS011;56317;27.658;85.326;2023-02-15T11:16:59;72.70;;;30.20;;
69203;SDS011;56317;27.658;85.326;2023-02-15T11:19:50;80.32;;;30.92;;
69203;SDS011;56317;27.658;85.326;2023-02-15T11:22:38;73.07;;;31.05;;
69203;SDS011;56317;27.658;85.326;2023-02-15T11:25:14;64.57;;;30.25;;
69203;SDS011;56317;27.658;85.326;2023-02-15T11:27:49;73.10;;;30.33;;
69203;SDS011;56317;27.658;85.326;2023-02-15T11:30:21;70.78;;;32.45;;
69203;SDS011;56317;27.658;85.326;2023-02-15T11:32:55;79.70;;;30.90;;
69203;SDS011;56317;27.658;85.326;2023-02-15T11:40:59;78.10;;;31.88;;
69203;SDS011;56317;27.658;85.326;2023-02-15T11:43:39;67.87;;;30.33;;
69203;SDS011;56317;27.658;85.326;2023-02-15T11:46:10;77.82;;;29.92;;
69203;SDS011;56317;27.658;85.326;2023-02-15T11:48:40;64.22;;;29.42;;
69203;SDS011;56317;27.658;85.326;2023-02-15T11:51:08;75.68;;;31.35;;
69203;SDS011;56317;27.658;85.326;2023-02-15T11:53:41;69.70;;;31.67;;
69203;SDS011;56317;27.658;85.326;2023-02-15T11:56:16;68.75;;;32.67;;
69203;SDS011;56317;27.658;85.326;2023-02-15T12:04:09;69.45;;;33.92;;
69203;SDS011;56317;27.658;85.326;2023-02-15T12:06:49;70.45;;;34.70;;
69203;SDS011;56317;27.658;85.326;2023-02-15T12:11:45;63.70;;;33.20;;
69203;SDS011;56317;27.658;85.326;2023-02-15T12:14:12;61.95;;;32.47;;
69203;SDS011;56317;27.658;85.326;2023-02-15T12:16:53;78.00;;;35.88;;
69203;SDS011;56317;27.658;85.326;2023-02-15T12:22:22;73.88;;;38.97;;
69203;SDS011;56317;27.658;85.326;2023-02-15T12:24:55;73.47;;;37.10;;
69203;SDS011;56317;27.658;85.326;2023-02-15T12:27:28;79.70;;;37.75;;
69203;SDS011;56317;27.658;85.326;2023-02-15T12:38:41;70.35;;;40.10;;
69203;SDS011;56317;27.658;85.326;2023-02-15T12:47:05;73.43;;;36.85;;
69203;SDS011;56317;27.658;85.326;2023-02-15T12:49:33;71.90;;;37.95;;
69203;SDS011;56317;27.658;85.326;2023-02-15T12:52:03;82.22;;;38.80;;
69203;SDS011;56317;27.658;85.326;2023-02-15T12:54:50;75.43;;;37.45;;
69203;SDS011;56317;27.658;85.326;2023-02-15T12:57:23;75.88;;;38.22;;
69203;SDS011;56317;27.658;85.326;2023-02-15T12:59:59;81.70;;;38.75;;
69203;SDS011;56317;27.658;85.326;2023-02-15T13:05:25;78.65;;;39.65;;
69203;SDS011;56317;27.658;85.326;2023-02-15T13:08:15;89.28;;;40.97;;
69203;SDS011;56317;27.658;85.326;2023-02-15T13:10:52;76.22;;;39.75;;
69203;SDS011;56317;27.658;85.326;2023-02-15T13:13:27;78.45;;;42.15;;
69203;SDS011;56317;27.658;85.326;2023-02-15T13:16:07;83.18;;;41.60;;
69203;SDS011;56317;27.658;85.326;2023-02-15T13:18:39;83.65;;;41.45;;
69203;SDS011;56317;27.658;85.326;2023-02-15T13:21:14;79.30;;;41.65;;
69203;SDS011;56317;27.658;85.326;2023-02-15T13:23:44;88.93;;;40.47;;
69203;SDS011;56317;27.658;85.326;2023-02-15T13:26:18;80.75;;;40.72;;
69203;SDS011;56317;27.658;85.326;2023-02-15T13:28:52;83.57;;;39.63;;
69203;SDS011;56317;27.658;85.326;2023-02-15T13:31:26;74.47;;;38.95;;
69203;SDS011;56317;27.658;85.326;2023-02-15T13:34:03;73.85;;;38.47;;
69203;SDS011;56317;27.658;85.326;2023-02-15T13:39:30;85.28;;;39.20;;
69203;SDS011;56317;27.658;85.326;2023-02-15T13:44:56;74.50;;;38.50;;
69203;SDS011;56317;27.658;85.326;2023-02-15T13:58:37;68.10;;;40.63;;
69203;SDS011;56317;27.658;85.326;2023-02-15T14:10:00;79.90;;;40.83;;
69203;SDS011;56317;27.658;85.326;2023-02-15T14:32:20;78.38;;;41.78;;
69203;SDS011;56317;27.658;85.326;2023-02-15T14:34:54;77.43;;;40.47;;
69203;SDS011;56317;27.658;85.326;2023-02-15T14:40:36;95.25;;;45.00;;
69203;SDS011;56317;27.658;85.326;2023-02-15T14:46:20;110.47;;;46.70;;
69203;SDS011;56317;27.658;85.326;2023-02-15T14:49:10;94.80;;;45.38;;
69203;SDS011;56317;27.658;85.326;2023-02-15T14:56:47;95.30;;;46.75;;
69203;SDS011;56317;27.658;85.326;2023-02-15T15:04:35;83.30;;;43.55;;
69203;SDS011;56317;27.658;85.326;2023-02-15T15:09:46;85.65;;;43.67;;
69203;SDS011;56317;27.658;85.326;2023-02-15T15:12:46;86.22;;;44.00;;
69203;SDS011;56317;27.658;85.326;2023-02-15T15:15:32;92.00;;;44.75;;
69203;SDS011;56317;27.658;85.326;2023-02-15T15:18:10;87.90;;;44.60;;
69203;SDS011;56317;27.658;85.326;2023-02-15T15:21:10;85.60;;;44.95;;
69203;SDS011;56317;27.658;85.326;2023-02-15T15:23:57;89.20;;;43.70;;
69203;SDS011;56317;27.658;85.326;2023-02-15T15:26:25;110.90;;;45.75;;
69203;SDS011;56317;27.658;85.326;2023-02-15T15:29:06;92.95;;;42.67;;
69203;SDS011;56317;27.658;85.326;2023-02-15T15:39:45;97.18;;;44.90;;
69203;SDS011;56317;27.658;85.326;2023-02-15T15:42:48;89.60;;;43.55;;
69203;SDS011;56317;27.658;85.326;2023-02-15T15:50:34;107.72;;;55.97;;
69203;SDS011;56317;27.658;85.326;2023-02-15T15:53:04;134.15;;;64.03;;
69203;SDS011;56317;27.658;85.326;2023-02-15T15:55:33;124.05;;;66.18;;
69203;SDS011;56317;27.658;85.326;2023-02-15T15:58:03;122.20;;;64.18;;
69203;SDS011;56317;27.658;85.326;2023-02-15T16:00:51;127.28;;;62.25;;
69203;SDS011;56317;27.658;85.326;2023-02-15T16:03:29;114.65;;;59.42;;
69203;SDS011;56317;27.658;85.326;2023-02-15T16:05:56;106.55;;;58.83;;
69203;SDS011;56317;27.658;85.326;2023-02-15T16:08:35;103.25;;;54.47;;
69203;SDS011;56317;27.658;85.326;2023-02-15T16:11:12;116.50;;;60.05;;
69203;SDS011;56317;27.658;85.326;2023-02-15T16:13:43;112.82;;;58.40;;
69203;SDS011;56317;27.658;85.326;2023-02-15T16:16:14;115.63;;;58.80;;
69203;SDS011;56317;27.658;85.326;2023-02-15T16:18:48;110.97;;;57.28;;
69203;SDS011;56317;27.658;85.326;2023-02-15T16:21:22;106.18;;;55.13;;
69203;SDS011;56317;27.658;85.326;2023-02-15T16:24:14;101.70;;;55.40;;
69203;SDS011;56317;27.658;85.326;2023-02-15T16:29:33;113.72;;;56.42;;
69203;SDS011;56317;27.658;85.326;2023-02-15T16:32:02;104.47;;;50.50;;
69203;SDS011;56317;27.658;85.326;2023-02-15T16:34:32;86.10;;;46.22;;
69203;SDS011;56317;27.658;85.326;2023-02-15T16:37:33;89.57;;;46.75;;
69203;SDS011;56317;27.658;85.326;2023-02-15T16:39:54;88.82;;;45.97;;
69203;SDS011;56317;27.658;85.326;2023-02-15T16:42:22;112.15;;;50.10;;
69203;SDS011;56317;27.658;85.326;2023-02-15T16:45:23;102.20;;;47.90;;
69203;SDS011;56317;27.658;85.326;2023-02-15T16:47:46;98.60;;;48.83;;
69203;SDS011;56317;27.658;85.326;2023-02-15T16:50:20;118.10;;;52.60;;
69203;SDS011;56317;27.658;85.326;2023-02-15T16:52:57;118.80;;;54.50;;
69203;SDS011;56317;27.658;85.326;2023-02-15T16:55:27;123.53;;;54.53;;
69203;SDS011;56317;27.658;85.326;2023-02-15T16:58:01;107.78;;;53.85;;
69203;SDS011;56317;27.658;85.326;2023-02-15T17:00:33;120.03;;;56.53;;
69203;SDS011;56317;27.658;85.326;2023-02-15T17:03:11;116.72;;;56.22;;
69203;SDS011;56317;27.658;85.326;2023-02-15T17:05:53;124.35;;;63.08;;
69203;SDS011;56317;27.658;85.326;2023-02-15T17:08:25;128.38;;;60.78;;
69203;SDS011;56317;27.658;85.326;2023-02-15T17:18:59;143.75;;;65.35;;
69203;SDS011;56317;27.658;85.326;2023-02-15T17:21:30;126.00;;;62.15;;
69203;SDS011;56317;27.658;85.326;2023-02-15T17:24:01;119.68;;;61.72;;
69203;SDS011;56317;27.658;85.326;2023-02-15T17:28:59;128.15;;;62.55;;
69203;SDS011;56317;27.658;85.326;2023-02-15T17:31:36;116.13;;;59.97;;
69203;SDS011;56317;27.658;85.326;2023-02-15T17:34:03;127.22;;;60.08;;
69203;SDS011;56317;27.658;85.326;2023-02-15T17:36:31;118.18;;;57.60;;
69203;SDS011;56317;27.658;85.326;2023-02-15T17:41:37;127.07;;;57.90;;
69203;SDS011;56317;27.658;85.326;2023-02-15T17:44:04;106.38;;;55.20;;
69203;SDS011;56317;27.658;85.326;2023-02-15T17:46:34;103.65;;;55.75;;
69203;SDS011;56317;27.658;85.326;2023-02-15T17:49:03;96.85;;;53.67;;
69203;SDS011;56317;27.658;85.326;2023-02-15T17:51:31;99.18;;;53.67;;
69203;SDS011;56317;27.658;85.326;2023-02-15T17:54:01;98.63;;;49.85;;
69203;SDS011;56317;27.658;85.326;2023-02-15T17:56:46;99.55;;;50.25;;
69203;SDS011;56317;27.658;85.326;2023-02-15T17:59:13;95.88;;;50.42;;
69203;SDS011;56317;27.658;85.326;2023-02-15T18:01:44;95.65;;;51.17;;
69203;SDS011;56317;27.658;85.326;2023-02-15T18:04:32;117.27;;;52.17;;
69203;SDS011;56317;27.658;85.326;2023-02-15T18:07:20;110.45;;;52.55;;
69203;SDS011;56317;27.658;85.326;2023-02-15T18:10:12;109.53;;;52.80;;
69203;SDS011;56317;27.658;85.326;2023-02-15T18:12:59;112.55;;;52.78;;
69203;SDS011;56317;27.658;85.326;2023-02-15T18:15:26;104.13;;;50.80;;
69203;SDS011;56317;27.658;85.326;2023-02-15T18:17:53;98.97;;;51.83;;
69203;SDS011;56317;27.658;85.326;2023-02-15T18:20:22;111.00;;;50.90;;
69203;SDS011;56317;27.658;85.326;2023-02-15T18:22:53;104.30;;;50.72;;
69203;SDS011;56317;27.658;85.326;2023-02-15T18:25:21;106.75;;;52.08;;